createdAt,value
2016-02-20T00:00:24.948Z,998.69
2016-02-20T00:01:24.920Z,998.66
2016-02-20T00:02:24.923Z,998.63
2016-02-20T00:03:24.910Z,998.63
2016-02-20T00:04:24.913Z,998.67
2016-02-20T00:05:24.904Z,998.67
2016-02-20T00:06:24.900Z,998.62
2016-02-20T00:07:24.903Z,998.62
2016-02-20T00:08:24.889Z,998.62
2016-02-20T00:09:24.892Z,998.65
2016-02-20T00:10:24.880Z,998.61
2016-02-20T00:11:24.883Z,998.59
2016-02-20T00:12:24.869Z,998.62
2016-02-20T00:13:24.872Z,998.63
2016-02-20T00:14:24.875Z,998.64
2016-02-20T00:15:24.862Z,998.63
2016-02-20T00:16:24.865Z,998.65
2016-02-20T00:17:24.852Z,998.62
2016-02-20T00:18:24.855Z,998.64
2016-02-20T00:19:24.841Z,998.67
2016-02-20T00:20:24.844Z,998.66
2016-02-20T00:21:24.863Z,998.63
2016-02-20T00:22:24.835Z,998.65
2016-02-20T00:23:24.837Z,998.59
2016-02-20T00:24:24.824Z,998.61
2016-02-20T00:25:24.826Z,998.59
2016-02-20T00:26:24.813Z,998.56
2016-02-20T00:27:24.815Z,998.57
2016-02-20T00:28:24.804Z,998.57
2016-02-20T00:29:24.806Z,998.59
2016-02-20T00:30:24.793Z,998.57
2016-02-20T00:31:24.801Z,998.57
2016-02-20T00:32:24.804Z,998.63
2016-02-20T00:33:24.790Z,998.66
2016-02-20T00:34:24.793Z,998.65
2016-02-20T00:35:24.781Z,998.65
2016-02-20T00:36:24.767Z,998.65
2016-02-20T00:37:24.769Z,998.67
2016-02-20T00:38:24.772Z,998.66
2016-02-20T00:39:24.760Z,998.63
2016-02-20T00:40:24.747Z,998.67
2016-02-20T00:41:24.749Z,998.7
2016-02-20T00:42:24.752Z,998.69
2016-02-20T00:43:24.739Z,998.69
2016-02-20T00:44:24.742Z,998.73
2016-02-20T00:45:24.729Z,998.73
2016-02-20T00:46:24.732Z,998.72
2016-02-20T00:47:24.718Z,998.7
2016-02-20T00:48:24.722Z,998.69
2016-02-20T00:49:24.724Z,998.71
2016-02-20T00:50:24.710Z,998.7
2016-02-20T00:51:24.713Z,998.63
2016-02-20T00:52:24.701Z,998.65
2016-02-20T00:53:24.703Z,998.62
2016-02-20T00:54:24.690Z,998.63
2016-02-20T00:55:24.694Z,998.68
2016-02-20T00:56:24.712Z,998.67
2016-02-20T00:57:24.684Z,998.66
2016-02-20T00:58:24.686Z,998.67
2016-02-20T00:59:24.673Z,998.68
2016-02-20T01:00:24.675Z,998.7
2016-02-20T01:01:24.662Z,998.68
2016-02-20T01:02:24.665Z,998.7
2016-02-20T01:03:24.652Z,998.7
2016-02-20T01:04:24.656Z,998.69
2016-02-20T01:05:24.642Z,998.72
2016-02-20T01:06:24.644Z,998.69
2016-02-20T01:07:24.632Z,998.72
2016-02-20T01:08:24.634Z,998.69
2016-02-20T01:09:24.621Z,998.69
2016-02-20T01:10:24.625Z,998.7
2016-02-20T01:11:24.627Z,998.72
2016-02-20T01:12:24.614Z,998.74
2016-02-20T01:13:24.617Z,998.76
2016-02-20T01:14:24.605Z,998.74
2016-02-20T01:15:24.607Z,998.78
2016-02-20T01:16:24.593Z,998.76
2016-02-20T01:17:24.596Z,998.71
2016-02-20T01:18:24.584Z,998.72
2016-02-20T01:19:24.571Z,998.67
2016-02-20T01:20:24.573Z,998.7
2016-02-20T01:21:24.565Z,998.67
2016-02-20T01:22:24.568Z,998.71
2016-02-20T01:23:24.555Z,998.67
2016-02-20T01:24:24.558Z,998.67
2016-02-20T01:25:24.560Z,998.68
2016-02-20T01:26:24.547Z,998.7
2016-02-20T01:27:24.534Z,998.66
2016-02-20T01:28:24.537Z,998.68
2016-02-20T01:29:24.587Z,998.69
2016-02-20T01:30:24.526Z,998.62
2016-02-20T01:31:24.514Z,998.62
2016-02-20T01:32:24.517Z,998.6
2016-02-20T01:33:24.519Z,998.61
2016-02-20T01:34:24.506Z,998.59
2016-02-20T01:35:24.493Z,998.58
2016-02-20T01:36:24.496Z,998.57
2016-02-20T01:37:24.483Z,998.58
2016-02-20T01:38:24.486Z,998.61
2016-02-20T01:39:24.473Z,998.66
2016-02-20T01:40:24.476Z,998.58
2016-02-20T01:41:24.463Z,998.61
2016-02-20T01:42:24.466Z,998.61
2016-02-20T01:43:24.452Z,998.61
2016-02-20T01:44:24.455Z,998.62
2016-02-20T01:45:24.441Z,998.59
2016-02-20T01:46:24.444Z,998.61
2016-02-20T01:47:24.432Z,998.63
2016-02-20T01:48:24.419Z,998.6
2016-02-20T01:49:24.421Z,998.59
2016-02-20T01:50:24.424Z,998.59
2016-02-20T01:51:24.412Z,998.57
2016-02-20T01:52:24.398Z,998.65
2016-02-20T01:53:24.401Z,998.6
2016-02-20T01:54:24.388Z,998.62
2016-02-20T01:55:24.391Z,998.62
2016-02-20T01:56:24.378Z,998.64
2016-02-20T01:57:24.381Z,998.62
2016-02-20T01:58:24.368Z,998.6
2016-02-20T01:59:24.370Z,998.59
2016-02-20T02:00:24.357Z,998.63
2016-02-20T02:01:24.344Z,998.64
2016-02-20T02:02:24.348Z,998.62
2016-02-20T02:03:24.334Z,998.59
2016-02-20T02:04:24.337Z,998.6
2016-02-20T02:05:24.322Z,998.56
2016-02-20T02:06:24.325Z,998.55
2016-02-20T02:07:24.311Z,998.55
2016-02-20T02:08:24.313Z,998.47
2016-02-20T02:09:24.300Z,998.56
2016-02-20T02:10:24.303Z,998.49
2016-02-20T02:11:24.291Z,998.52
2016-02-20T02:12:24.294Z,998.54
2016-02-20T02:13:24.280Z,998.52
2016-02-20T02:14:24.283Z,998.48
2016-02-20T02:15:24.270Z,998.46
2016-02-20T02:16:24.257Z,998.49
2016-02-20T02:17:24.260Z,998.44
2016-02-20T02:18:24.246Z,998.44
2016-02-20T02:19:24.249Z,998.4
2016-02-20T02:20:24.252Z,998.36
2016-02-20T02:21:24.240Z,998.42
2016-02-20T02:22:24.226Z,998.39
2016-02-20T02:23:24.229Z,998.33
2016-02-20T02:24:24.216Z,998.32
2016-02-20T02:25:24.218Z,998.36
2016-02-20T02:26:24.206Z,998.3
2016-02-20T02:27:24.209Z,998.34
2016-02-20T02:28:24.195Z,998.24
2016-02-20T02:29:24.198Z,998.31
2016-02-20T02:30:24.185Z,998.25
2016-02-20T02:31:24.187Z,998.33
2016-02-20T02:32:24.175Z,998.29
2016-02-20T02:33:24.162Z,998.32
2016-02-20T02:34:24.165Z,998.29
2016-02-20T02:35:24.167Z,998.22
2016-02-20T02:36:24.155Z,998.21
2016-02-20T02:37:24.157Z,998.19
2016-02-20T02:38:24.144Z,998.17
2016-02-20T02:39:24.131Z,998.16
2016-02-20T02:40:24.133Z,998.18
2016-02-20T02:41:24.136Z,998.12
2016-02-20T02:42:24.124Z,998.13
2016-02-20T02:43:24.111Z,998.17
2016-02-20T02:44:24.114Z,998.16
2016-02-20T02:45:24.100Z,998.17
2016-02-20T02:46:24.103Z,998.15
2016-02-20T02:47:24.090Z,998.19
2016-02-20T02:48:24.093Z,998.19
2016-02-20T02:49:24.080Z,998.14
2016-02-20T02:50:24.082Z,998.13
2016-02-20T02:51:24.070Z,998.1
2016-02-20T02:52:24.073Z,998.15
2016-02-20T02:53:24.059Z,998.16
2016-02-20T02:54:24.079Z,998.17
2016-02-20T02:55:24.065Z,998.18
2016-02-20T02:56:24.052Z,998.22
2016-02-20T02:57:24.040Z,998.25
2016-02-20T02:58:24.026Z,998.27
2016-02-20T02:59:24.029Z,998.25
2016-02-20T03:00:24.016Z,998.2
2016-02-20T03:01:24.019Z,998.16
2016-02-20T03:02:24.006Z,998.17
2016-02-20T03:03:24.008Z,998.14
2016-02-20T03:04:23.995Z,998.18
2016-02-20T03:05:23.998Z,998.23
2016-02-20T03:06:24.000Z,998.28
2016-02-20T03:07:23.989Z,998.25
2016-02-20T03:08:23.975Z,998.28
2016-02-20T03:09:23.978Z,998.26
2016-02-20T03:10:23.964Z,998.25
2016-02-20T03:11:23.967Z,998.31
2016-02-20T03:12:23.955Z,998.31
2016-02-20T03:13:23.957Z,998.35
2016-02-20T03:14:23.945Z,998.34
2016-02-20T03:15:23.930Z,998.33
2016-02-20T03:16:23.934Z,998.32
2016-02-20T03:17:23.921Z,998.29
2016-02-20T03:18:23.924Z,998.28
2016-02-20T03:19:23.926Z,998.3
2016-02-20T03:20:23.913Z,998.25
2016-02-20T03:21:23.916Z,998.23
2016-02-20T03:22:23.903Z,998.26
2016-02-20T03:23:23.890Z,998.21
2016-02-20T03:24:23.894Z,998.22
2016-02-20T03:25:23.880Z,998.23
2016-02-20T03:26:23.868Z,998.24
2016-02-20T03:27:23.871Z,998.24
2016-02-20T03:28:23.857Z,998.23
2016-02-20T03:29:23.890Z,998.25
2016-02-20T03:30:23.847Z,998.24
2016-02-20T03:31:23.848Z,998.22
2016-02-20T03:32:23.836Z,998.2
2016-02-20T03:33:23.839Z,998.24
2016-02-20T03:34:23.826Z,998.21
2016-02-20T03:35:23.829Z,998.22
2016-02-20T03:36:23.817Z,998.24
2016-02-20T03:37:23.803Z,998.25
2016-02-20T03:38:23.806Z,998.26
2016-02-20T03:39:23.808Z,998.24
2016-02-20T03:40:23.796Z,998.19
2016-02-20T03:41:23.783Z,998.14
2016-02-20T03:42:23.770Z,998.13
2016-02-20T03:43:23.772Z,998.19
2016-02-20T03:44:23.759Z,998.27
2016-02-20T03:45:23.762Z,998.22
2016-02-20T03:46:23.749Z,998.26
2016-02-20T03:47:23.971Z,998.24
2016-02-20T03:48:23.739Z,998.24
2016-02-20T03:49:23.727Z,998.25
2016-02-20T03:50:23.729Z,998.27
2016-02-20T03:51:23.731Z,998.23
2016-02-20T03:52:23.719Z,998.23
2016-02-20T03:53:23.705Z,998.24
2016-02-20T03:54:23.708Z,998.22
2016-02-20T03:55:23.696Z,998.21
2016-02-20T03:56:23.698Z,998.16
2016-02-20T03:57:23.685Z,998.17
2016-02-20T03:58:23.671Z,998.14
2016-02-20T03:59:23.674Z,998.15
2016-02-20T04:00:24.115Z,998.11
2016-02-20T04:01:23.665Z,998.12
2016-02-20T04:02:23.652Z,998.18
2016-02-20T04:03:23.654Z,998.12
2016-02-20T04:04:23.642Z,998.14
2016-02-20T04:05:23.659Z,998.13
2016-02-20T04:06:23.631Z,998.11
2016-02-20T04:07:23.634Z,998.09
2016-02-20T04:08:23.606Z,998.08
2016-02-20T04:09:23.624Z,998.07
2016-02-20T04:10:23.595Z,998.03
2016-02-20T04:11:23.598Z,998.04
2016-02-20T04:12:23.600Z,998.04
2016-02-20T04:13:23.587Z,998.05
2016-02-20T04:14:23.575Z,998.09
2016-02-20T04:15:23.561Z,998.14
2016-02-20T04:16:23.564Z,998.06
2016-02-20T04:17:23.583Z,998.07
2016-02-20T04:18:23.555Z,998.02
2016-02-20T04:19:23.541Z,998.04
2016-02-20T04:20:23.544Z,998.01
2016-02-20T04:21:23.547Z,998.03
2016-02-20T04:22:23.533Z,998.01
2016-02-20T04:23:23.536Z,998.05
2016-02-20T04:24:23.508Z,998.06
2016-02-20T04:25:23.494Z,998.02
2016-02-20T04:26:23.497Z,998.01
2016-02-20T04:27:23.499Z,998.04
2016-02-20T04:28:23.488Z,998.05
2016-02-20T04:29:23.474Z,998.03
2016-02-20T04:30:23.462Z,998.13
2016-02-20T04:31:23.479Z,998.07
2016-02-20T04:32:23.451Z,998.12
2016-02-20T04:33:23.454Z,998.14
2016-02-20T04:34:23.441Z,998.15
2016-02-20T04:35:23.443Z,998.09
2016-02-20T04:36:23.431Z,998.04
2016-02-20T04:37:23.433Z,998.09
2016-02-20T04:38:23.421Z,998.06
2016-02-20T04:39:23.423Z,998.05
2016-02-20T04:40:23.395Z,998.07
2016-02-20T04:41:23.413Z,998.01
2016-02-20T04:42:23.400Z,998.01
2016-02-20T04:43:23.387Z,998
2016-02-20T04:44:23.375Z,998
2016-02-20T04:45:23.393Z,997.99
2016-02-20T04:46:23.364Z,997.97
2016-02-20T04:47:23.350Z,997.91
2016-02-20T04:48:23.354Z,997.9
2016-02-20T04:49:23.341Z,997.91
2016-02-20T04:50:23.344Z,997.82
2016-02-20T04:51:23.331Z,997.85
2016-02-20T04:52:23.317Z,997.84
2016-02-20T04:53:23.336Z,997.78
2016-02-20T04:54:23.307Z,997.76
2016-02-20T04:55:23.310Z,997.75
2016-02-20T04:56:23.297Z,997.67
2016-02-20T04:57:23.285Z,997.63
2016-02-20T04:58:23.287Z,997.64
2016-02-20T04:59:23.290Z,997.59
2016-02-20T05:00:23.277Z,997.6
2016-02-20T05:01:23.264Z,997.6
2016-02-20T05:02:23.266Z,997.58
2016-02-20T05:03:23.254Z,997.53
2016-02-20T05:04:23.241Z,997.51
2016-02-20T05:05:23.243Z,997.52
2016-02-20T05:06:23.230Z,997.53
2016-02-20T05:07:23.217Z,997.56
2016-02-20T05:08:23.220Z,997.55
2016-02-20T05:09:23.206Z,997.6
2016-02-20T05:10:23.194Z,997.6
2016-02-20T05:11:23.198Z,997.59
2016-02-20T05:12:23.184Z,997.61
2016-02-20T05:13:23.186Z,997.57
2016-02-20T05:14:23.174Z,997.54
2016-02-20T05:15:23.176Z,997.49
2016-02-20T05:16:23.164Z,997.51
2016-02-20T05:17:23.166Z,997.53
2016-02-20T05:18:23.153Z,997.52
2016-02-20T05:19:23.140Z,997.49
2016-02-20T05:20:23.127Z,997.48
2016-02-20T05:21:23.131Z,997.49
2016-02-20T05:22:23.133Z,997.49
2016-02-20T05:23:23.119Z,997.46
2016-02-20T05:24:23.108Z,997.45
2016-02-20T05:25:23.110Z,997.42
2016-02-20T05:26:23.097Z,997.4
2016-02-20T05:27:23.099Z,997.42
2016-02-20T05:28:23.071Z,997.4
2016-02-20T05:29:23.074Z,997.39
2016-02-20T05:30:23.060Z,997.42
2016-02-20T05:31:23.063Z,997.39
2016-02-20T05:32:23.050Z,997.36
2016-02-20T05:33:23.052Z,997.29
2016-02-20T05:34:23.040Z,997.32
2016-02-20T05:35:23.043Z,997.32
2016-02-20T05:36:23.029Z,997.28
2016-02-20T05:37:23.032Z,997.25
2016-02-20T05:38:23.020Z,997.26
2016-02-20T05:39:23.023Z,997.28
2016-02-20T05:40:22.993Z,997.27
2016-02-20T05:41:23.012Z,997.25
2016-02-20T05:42:22.984Z,997.28
2016-02-20T05:43:22.986Z,997.25
2016-02-20T05:44:22.973Z,997.29
2016-02-20T05:45:22.976Z,997.32
2016-02-20T05:46:22.947Z,997.3
2016-02-20T05:47:22.950Z,997.3
2016-02-20T05:48:22.936Z,997.29
2016-02-20T05:49:22.956Z,997.27
2016-02-20T05:50:22.927Z,997.27
2016-02-20T05:51:22.930Z,997.31
2016-02-20T05:52:22.917Z,997.37
2016-02-20T05:53:22.903Z,997.34
2016-02-20T05:54:22.906Z,997.3
2016-02-20T05:55:22.894Z,997.32
2016-02-20T05:56:22.897Z,997.32
2016-02-20T05:57:22.883Z,997.25
2016-02-20T05:58:22.869Z,997.26
2016-02-20T05:59:22.872Z,997.27
2016-02-20T06:00:22.860Z,997.23
2016-02-20T06:01:22.862Z,997.24
2016-02-20T06:02:22.850Z,997.22
2016-02-20T06:03:22.852Z,997.23
2016-02-20T06:04:22.824Z,997.23
2016-02-20T06:05:23.092Z,997.22
2016-02-20T06:06:22.813Z,997.23
2016-02-20T06:07:22.816Z,997.22
2016-02-20T06:08:22.803Z,997.21
2016-02-20T06:09:22.790Z,997.2
2016-02-20T06:10:22.793Z,997.23
2016-02-20T06:11:22.779Z,997.19
2016-02-20T06:12:22.768Z,997.22
2016-02-20T06:13:22.770Z,997.15
2016-02-20T06:14:22.773Z,997.15
2016-02-20T06:15:22.759Z,997.18
2016-02-20T06:16:22.747Z,997.18
2016-02-20T06:17:22.750Z,997.18
2016-02-20T06:18:22.736Z,997.14
2016-02-20T06:19:22.739Z,997.06
2016-02-20T06:20:22.726Z,997.06
2016-02-20T06:21:22.713Z,997.06
2016-02-20T06:22:22.700Z,997.04
2016-02-20T06:23:22.703Z,997.02
2016-02-20T06:24:22.690Z,997.02
2016-02-20T06:25:22.708Z,997
2016-02-20T06:26:22.680Z,997.01
2016-02-20T06:27:22.667Z,997.03
2016-02-20T06:28:22.669Z,997.03
2016-02-20T06:29:22.657Z,997.04
2016-02-20T06:30:22.644Z,997.02
2016-02-20T06:31:22.647Z,997.01
2016-02-20T06:32:22.633Z,997
2016-02-20T06:33:22.621Z,997.02
2016-02-20T06:34:22.623Z,996.99
2016-02-20T06:35:22.610Z,997.01
2016-02-20T06:36:22.612Z,996.94
2016-02-20T06:37:22.632Z,996.95
2016-02-20T06:38:22.587Z,996.96
2016-02-20T06:39:22.605Z,996.96
2016-02-20T06:40:22.576Z,996.92
2016-02-20T06:41:22.579Z,996.92
2016-02-20T06:42:22.567Z,996.89
2016-02-20T06:43:22.554Z,996.89
2016-02-20T06:44:22.573Z,996.9
2016-02-20T06:45:22.543Z,996.86
2016-02-20T06:46:22.545Z,996.84
2016-02-20T06:47:22.533Z,996.83
2016-02-20T06:48:22.520Z,996.84
2016-02-20T06:49:22.523Z,996.81
2016-02-20T06:50:22.509Z,996.76
2016-02-20T06:51:22.512Z,996.75
2016-02-20T06:52:22.500Z,996.71
2016-02-20T06:53:22.502Z,996.71
2016-02-20T06:54:22.490Z,996.69
2016-02-20T06:55:22.477Z,996.66
2016-02-20T06:56:22.495Z,996.67
2016-02-20T06:57:22.466Z,996.62
2016-02-20T06:58:22.469Z,996.64
2016-02-20T06:59:22.456Z,996.62
2016-02-20T07:00:22.443Z,996.62
2016-02-20T07:01:22.446Z,996.64
2016-02-20T07:02:22.433Z,996.57
2016-02-20T07:03:22.435Z,996.53
2016-02-20T07:04:22.422Z,996.48
2016-02-20T07:05:22.425Z,996.5
2016-02-20T07:06:22.412Z,996.47
2016-02-20T07:07:22.415Z,996.46
2016-02-20T07:08:22.432Z,996.38
2016-02-20T07:09:22.405Z,996.37
2016-02-20T07:10:22.392Z,996.37
2016-02-20T07:11:22.378Z,996.36
2016-02-20T07:12:22.382Z,996.35
2016-02-20T07:13:22.384Z,996.39
2016-02-20T07:14:22.371Z,996.42
2016-02-20T07:15:22.374Z,996.35
2016-02-20T07:16:22.361Z,996.37
2016-02-20T07:17:22.348Z,996.4
2016-02-20T07:18:22.350Z,996.43
2016-02-20T07:19:22.338Z,996.39
2016-02-20T07:20:22.340Z,996.35
2016-02-20T07:21:22.327Z,996.32
2016-02-20T07:22:22.330Z,996.31
2016-02-20T07:23:22.317Z,996.3
2016-02-20T07:24:22.305Z,996.36
2016-02-20T07:25:22.308Z,996.28
2016-02-20T07:26:22.294Z,996.27
2016-02-20T07:27:22.297Z,996.3
2016-02-20T07:28:22.283Z,996.35
2016-02-20T07:29:22.287Z,996.29
2016-02-20T07:30:22.289Z,996.26
2016-02-20T07:31:22.276Z,996.26
2016-02-20T07:32:22.279Z,996.26
2016-02-20T07:33:22.266Z,996.3
2016-02-20T07:34:22.253Z,996.26
2016-02-20T07:35:22.255Z,996.26
2016-02-20T07:36:22.244Z,996.25
2016-02-20T07:37:22.246Z,996.28
2016-02-20T07:38:22.248Z,996.26
2016-02-20T07:39:22.235Z,996.35
2016-02-20T07:40:22.238Z,996.3
2016-02-20T07:41:22.225Z,996.35
2016-02-20T07:42:22.212Z,996.37
2016-02-20T07:43:22.215Z,996.41
2016-02-20T07:44:22.202Z,996.36
2016-02-20T07:45:22.204Z,996.37
2016-02-20T07:46:22.207Z,996.34
2016-02-20T07:47:22.788Z,996.37
2016-02-20T07:48:22.197Z,996.36
2016-02-20T07:49:22.184Z,996.3
2016-02-20T07:50:22.187Z,996.27
2016-02-20T07:51:22.173Z,996.27
2016-02-20T07:52:22.192Z,996.28
2016-02-20T07:53:22.163Z,996.27
2016-02-20T07:54:22.167Z,996.29
2016-02-20T07:55:22.153Z,996.27
2016-02-20T07:56:22.156Z,996.31
2016-02-20T07:57:22.144Z,996.31
2016-02-20T07:58:22.146Z,996.27
2016-02-20T07:59:22.149Z,996.25
2016-02-20T08:00:22.135Z,996.25
2016-02-20T08:01:22.138Z,996.24
2016-02-20T08:02:22.125Z,996.21
2016-02-20T08:03:22.127Z,996.21
2016-02-20T08:04:22.116Z,996.15
2016-02-20T08:05:22.118Z,996.14
2016-02-20T08:06:22.121Z,996.09
2016-02-20T08:07:22.108Z,996.06
2016-02-20T08:08:22.110Z,996.07
2016-02-20T08:09:22.096Z,996.08
2016-02-20T08:10:22.100Z,996.11
2016-02-20T08:11:22.087Z,996.16
2016-02-20T08:12:22.090Z,996.16
2016-02-20T08:13:22.076Z,996.08
2016-02-20T08:14:22.079Z,996.13
2016-02-20T08:15:22.082Z,996.1
2016-02-20T08:16:22.084Z,996.14
2016-02-20T08:17:22.073Z,996.16
2016-02-20T08:18:22.075Z,996.16
2016-02-20T08:19:22.077Z,996.06
2016-02-20T08:20:22.064Z,995.99
2016-02-20T08:21:22.051Z,995.96
2016-02-20T08:22:22.054Z,995.96
2016-02-20T08:23:22.041Z,995.9
2016-02-20T08:24:22.044Z,995.86
2016-02-20T08:25:22.047Z,995.88
2016-02-20T08:26:22.033Z,995.89
2016-02-20T08:27:22.037Z,995.89
2016-02-20T08:28:22.039Z,995.9
2016-02-20T08:29:22.025Z,995.9
2016-02-20T08:30:22.028Z,995.87
2016-02-20T08:31:22.031Z,995.93
2016-02-20T08:32:22.019Z,995.86
2016-02-20T08:33:22.021Z,995.86
2016-02-20T08:34:22.008Z,995.88
2016-02-20T08:35:22.011Z,995.88
2016-02-20T08:36:22.013Z,995.91
2016-02-20T08:37:22.002Z,995.94
2016-02-20T08:38:22.002Z,995.9
2016-02-20T08:39:21.994Z,995.99
2016-02-20T08:40:21.970Z,995.91
2016-02-20T08:41:21.961Z,995.89
2016-02-20T08:42:21.952Z,995.87
2016-02-20T08:43:21.929Z,995.8
2016-02-20T08:44:22.568Z,995.77
2016-02-20T08:45:21.926Z,995.79
2016-02-20T08:46:21.924Z,995.7
2016-02-20T08:47:21.907Z,995.67
2016-02-20T08:48:21.890Z,995.66
2016-02-20T08:49:21.892Z,995.64
2016-02-20T08:50:21.893Z,995.65
2016-02-20T08:51:21.878Z,995.62
2016-02-20T08:52:21.879Z,995.63
2016-02-20T08:53:21.881Z,995.6
2016-02-20T08:54:21.868Z,995.57
2016-02-20T08:55:21.870Z,995.58
2016-02-20T08:56:21.873Z,995.52
2016-02-20T08:57:21.875Z,995.48
2016-02-20T08:58:21.861Z,995.52
2016-02-20T08:59:21.864Z,995.52
2016-02-20T09:00:21.851Z,995.55
2016-02-20T09:01:21.853Z,995.62
2016-02-20T09:02:21.856Z,995.59
2016-02-20T09:03:21.842Z,995.66
2016-02-20T09:04:21.845Z,995.65
2016-02-20T09:05:21.847Z,995.64
2016-02-20T09:06:21.850Z,995.66
2016-02-20T09:07:21.837Z,995.61
2016-02-20T09:08:21.840Z,995.57
2016-02-20T09:09:21.842Z,995.53
2016-02-20T09:10:21.827Z,995.5
2016-02-20T09:11:21.830Z,995.48
2016-02-20T09:12:21.833Z,995.45
2016-02-20T09:13:21.835Z,995.45
2016-02-20T09:14:21.852Z,995.43
2016-02-20T09:15:21.825Z,995.44
2016-02-20T09:16:21.811Z,995.39
2016-02-20T09:17:21.814Z,995.41
2016-02-20T09:18:21.895Z,995.38
2016-02-20T09:19:21.929Z,995.39
2016-02-20T09:20:21.807Z,995.45
2016-02-20T09:21:21.809Z,995.45
2016-02-20T09:22:21.812Z,995.45
2016-02-20T09:23:21.799Z,995.51
2016-02-20T09:24:21.801Z,995.52
2016-02-20T09:25:21.805Z,995.49
2016-02-20T09:26:21.807Z,995.39
2016-02-20T09:27:21.794Z,995.36
2016-02-20T09:28:21.798Z,995.34
2016-02-20T09:29:21.800Z,995.36
2016-02-20T09:30:21.787Z,995.41
2016-02-20T09:31:21.790Z,995.36
2016-02-20T09:32:21.792Z,995.34
2016-02-20T09:33:21.795Z,995.34
2016-02-20T09:34:21.797Z,995.37
2016-02-20T09:35:21.784Z,995.4
2016-02-20T09:36:21.787Z,995.35
2016-02-20T09:37:21.790Z,995.38
2016-02-20T09:38:21.792Z,995.38
2016-02-20T09:39:21.795Z,995.35
2016-02-20T09:40:21.783Z,995.29
2016-02-20T09:41:21.785Z,995.29
2016-02-20T09:42:21.788Z,995.25
2016-02-20T09:43:21.791Z,995.23
2016-02-20T09:44:21.777Z,995.2
2016-02-20T09:45:21.780Z,995.14
2016-02-20T09:46:21.783Z,995.2
2016-02-20T09:47:21.785Z,995.25
2016-02-20T09:48:21.788Z,995.21
2016-02-20T09:49:21.775Z,995.18
2016-02-20T09:50:21.777Z,995.18
2016-02-20T09:51:21.780Z,995.19
2016-02-20T09:52:21.783Z,995.15
2016-02-20T09:53:21.771Z,995.06
2016-02-20T09:54:21.788Z,995.08
2016-02-20T09:55:21.776Z,995.08
2016-02-20T09:56:21.779Z,995
2016-02-20T09:57:21.781Z,995.05
2016-02-20T09:58:21.768Z,995.06
2016-02-20T09:59:21.771Z,995.04
2016-02-20T10:00:21.773Z,994.96
2016-02-20T10:01:21.777Z,994.96
2016-02-20T10:02:21.779Z,994.87
2016-02-20T10:03:21.782Z,994.86
2016-02-20T10:04:21.770Z,994.81
2016-02-20T10:05:21.772Z,994.78
2016-02-20T10:06:21.775Z,994.79
2016-02-20T10:07:21.777Z,994.82
2016-02-20T10:08:21.780Z,994.87
2016-02-20T10:09:21.782Z,994.86
2016-02-20T10:10:21.786Z,994.88
2016-02-20T10:11:21.772Z,994.84
2016-02-20T10:12:21.775Z,994.83
2016-02-20T10:13:21.778Z,994.8
2016-02-20T10:14:21.780Z,994.77
2016-02-20T10:15:21.783Z,994.76
2016-02-20T10:16:21.769Z,994.71
2016-02-20T10:17:21.772Z,994.72
2016-02-20T10:18:21.791Z,994.8
2016-02-20T10:19:21.778Z,994.79
2016-02-20T10:20:21.781Z,994.75
2016-02-20T10:21:21.783Z,994.77
2016-02-20T10:22:21.770Z,994.67
2016-02-20T10:23:21.789Z,994.68
2016-02-20T10:24:21.776Z,994.63
2016-02-20T10:25:21.793Z,994.67
2016-02-20T10:26:21.781Z,994.58
2016-02-20T10:27:21.784Z,994.58
2016-02-20T10:28:21.787Z,994.66
2016-02-20T10:29:21.790Z,994.57
2016-02-20T10:30:21.776Z,994.59
2016-02-20T10:31:21.795Z,994.46
2016-02-20T10:32:21.782Z,994.5
2016-02-20T10:33:21.784Z,994.46
2016-02-20T10:34:21.896Z,994.45
2016-02-20T10:35:21.805Z,994.45
2016-02-20T10:36:21.776Z,994.47
2016-02-20T10:37:21.779Z,994.39
2016-02-20T10:38:21.798Z,994.4
2016-02-20T10:39:21.800Z,994.41
2016-02-20T10:40:21.787Z,994.43
2016-02-20T10:41:21.775Z,994.52
2016-02-20T10:42:21.793Z,994.46
2016-02-20T10:43:21.780Z,994.38
2016-02-20T10:44:21.783Z,994.35
2016-02-20T10:45:21.786Z,994.42
2016-02-20T10:46:21.803Z,994.28
2016-02-20T10:47:21.791Z,994.21
2016-02-20T10:48:21.794Z,994.16
2016-02-20T10:49:21.780Z,994.13
2016-02-20T10:50:21.783Z,994.11
2016-02-20T10:51:21.786Z,994.06
2016-02-20T10:52:21.819Z,994.06
2016-02-20T10:53:21.791Z,994.03
2016-02-20T10:54:21.793Z,994.05
2016-02-20T10:55:21.796Z,994.01
2016-02-20T10:56:21.799Z,994.01
2016-02-20T10:57:21.787Z,994
2016-02-20T10:58:21.790Z,993.96
2016-02-20T10:59:21.792Z,993.97
2016-02-20T11:00:21.794Z,993.95
2016-02-20T11:01:21.781Z,993.86
2016-02-20T11:02:21.784Z,993.85
2016-02-20T11:03:21.787Z,993.83
2016-02-20T11:04:21.790Z,993.78
2016-02-20T11:05:21.793Z,993.73
2016-02-20T11:06:21.795Z,993.79
2016-02-20T11:07:21.798Z,993.73
2016-02-20T11:08:21.800Z,993.74
2016-02-20T11:09:21.787Z,993.74
2016-02-20T11:10:21.790Z,993.7
2016-02-20T11:11:21.792Z,993.67
2016-02-20T11:12:21.796Z,993.65
2016-02-20T11:13:21.783Z,993.6
2016-02-20T11:14:21.786Z,993.6
2016-02-20T11:15:21.804Z,993.58
2016-02-20T11:16:21.791Z,993.59
2016-02-20T11:17:21.794Z,993.56
2016-02-20T11:18:21.797Z,993.55
2016-02-20T11:19:21.799Z,993.54
2016-02-20T11:20:21.786Z,993.48
2016-02-20T11:21:21.789Z,993.47
2016-02-20T11:22:21.791Z,993.43
2016-02-20T11:23:21.794Z,993.41
2016-02-20T11:24:21.781Z,993.4
2016-02-20T11:25:21.783Z,993.39
2016-02-20T11:26:21.786Z,993.39
2016-02-20T11:27:21.789Z,993.35
2016-02-20T11:28:21.807Z,993.31
2016-02-20T11:29:21.794Z,993.31
2016-02-20T11:30:21.797Z,993.3
2016-02-20T11:31:21.800Z,993.26
2016-02-20T11:32:21.787Z,993.24
2016-02-20T11:33:21.774Z,993.2
2016-02-20T11:34:21.777Z,993.16
2016-02-20T11:35:21.810Z,993.15
2016-02-20T11:36:21.781Z,993.12
2016-02-20T11:37:21.784Z,993.18
2016-02-20T11:38:21.772Z,993.15
2016-02-20T11:39:21.775Z,993.09
2016-02-20T11:40:21.965Z,993.06
2016-02-20T11:41:21.781Z,993.03
2016-02-20T11:42:21.783Z,993
2016-02-20T11:43:21.770Z,992.94
2016-02-20T11:44:21.773Z,992.88
2016-02-20T11:45:21.791Z,992.92
2016-02-20T11:46:21.777Z,992.91
2016-02-20T11:47:21.796Z,992.82
2016-02-20T11:48:21.783Z,992.85
2016-02-20T11:49:21.786Z,992.85
2016-02-20T11:50:21.789Z,992.85
2016-02-20T11:51:21.775Z,992.85
2016-02-20T11:52:21.778Z,992.84
2016-02-20T11:53:21.781Z,992.89
2016-02-20T11:54:21.783Z,992.85
2016-02-20T11:55:21.786Z,992.89
2016-02-20T11:56:21.820Z,992.85
2016-02-20T11:57:21.776Z,992.87
2016-02-20T11:58:21.779Z,992.81
2016-02-20T11:59:21.781Z,992.81
2016-02-20T12:00:21.768Z,992.76
2016-02-20T12:01:21.880Z,992.8
2016-02-20T12:02:21.821Z,992.74
2016-02-20T12:03:22.151Z,992.78
2016-02-20T12:04:22.685Z,992.78
2016-02-20T12:05:21.782Z,992.82
2016-02-20T12:06:21.769Z,992.76
2016-02-20T12:07:21.897Z,992.73
2016-02-20T12:08:21.884Z,992.69
2016-02-20T12:09:21.777Z,992.64
2016-02-20T12:10:21.812Z,992.63
2016-02-20T12:11:21.876Z,992.61
2016-02-20T12:12:21.784Z,992.57
2016-02-20T12:13:21.866Z,992.56
2016-02-20T12:14:21.775Z,992.54
2016-02-20T12:15:21.793Z,992.59
2016-02-20T12:16:21.780Z,992.58
2016-02-20T12:17:21.815Z,992.54
2016-02-20T12:18:21.816Z,992.56
2016-02-20T12:19:21.773Z,992.53
2016-02-20T12:20:21.822Z,992.52
2016-02-20T12:21:21.840Z,992.43
2016-02-20T12:22:21.827Z,992.42
2016-02-20T12:23:21.783Z,992.42
2016-02-20T12:24:21.786Z,992.43
2016-02-20T12:25:21.774Z,992.41
2016-02-20T12:26:21.777Z,992.34
2016-02-20T12:27:21.779Z,992.35
2016-02-20T12:28:21.782Z,992.33
2016-02-20T12:29:21.768Z,992.33
2016-02-20T12:30:21.771Z,992.36
2016-02-20T12:31:21.773Z,992.3